sensor_id;sensor_type;location;lat;lon;timestamp;P1;durP1;ratioP1;P2;durP2;ratioP2
16579;SDS011;8402;51.466;6.806;2022-10-04T00:01:47;8.33;;;4.20;;
16579;SDS011;8402;51.466;6.806;2022-10-04T00:04:18;8.53;;;4.10;;
16579;SDS011;8402;51.466;6.806;2022-10-04T00:06:53;7.60;;;3.70;;
16579;SDS011;8402;51.466;6.806;2022-10-04T00:09:25;6.83;;;3.77;;
16579;SDS011;8402;51.466;6.806;2022-10-04T00:11:58;12.23;;;4.13;;
16579;SDS011;8402;51.466;6.806;2022-10-04T00:14:29;6.83;;;4.30;;
16579;SDS011;8402;51.466;6.806;2022-10-04T00:17:06;6.13;;;3.73;;
16579;SDS011;8402;51.466;6.806;2022-10-04T00:19:39;6.50;;;4.07;;
16579;SDS011;8402;51.466;6.806;2022-10-04T00:22:14;8.20;;;4.40;;
16579;SDS011;8402;51.466;6.806;2022-10-04T00:31:15;9.73;;;4.57;;
16579;SDS011;8402;51.466;6.806;2022-10-04T00:33:46;11.43;;;4.67;;
16579;SDS011;8402;51.466;6.806;2022-10-04T00:42:18;9.87;;;4.33;;
16579;SDS011;8402;51.466;6.806;2022-10-04T00:44:59;9.27;;;4.50;;
16579;SDS011;8402;51.466;6.806;2022-10-04T00:47:52;7.13;;;4.10;;
16579;SDS011;8402;51.466;6.806;2022-10-04T00:50:28;12.73;;;5.00;;
16579;SDS011;8402;51.466;6.806;2022-10-04T00:53:01;10.73;;;4.67;;
16579;SDS011;8402;51.466;6.806;2022-10-04T00:55:43;10.53;;;4.63;;
16579;SDS011;8402;51.466;6.806;2022-10-04T00:58:16;8.60;;;4.67;;
16579;SDS011;8402;51.466;6.806;2022-10-04T01:00:49;14.00;;;4.87;;
16579;SDS011;8402;51.466;6.806;2022-10-04T01:03:25;12.57;;;4.90;;
16579;SDS011;8402;51.466;6.806;2022-10-04T01:05:57;10.07;;;4.20;;
16579;SDS011;8402;51.466;6.806;2022-10-04T01:08:30;7.90;;;4.57;;
16579;SDS011;8402;51.466;6.806;2022-10-04T01:11:02;7.97;;;4.27;;
16579;SDS011;8402;51.466;6.806;2022-10-04T01:13:35;10.17;;;4.77;;
16579;SDS011;8402;51.466;6.806;2022-10-04T01:16:08;7.70;;;4.60;;
16579;SDS011;8402;51.466;6.806;2022-10-04T01:18:42;6.10;;;4.37;;
16579;SDS011;8402;51.466;6.806;2022-10-04T01:21:20;9.17;;;4.70;;
16579;SDS011;8402;51.466;6.806;2022-10-04T01:23:54;16.27;;;4.73;;
16579;SDS011;8402;51.466;6.806;2022-10-04T01:26:47;6.47;;;4.10;;
16579;SDS011;8402;51.466;6.806;2022-10-04T01:29:16;9.60;;;4.60;;
16579;SDS011;8402;51.466;6.806;2022-10-04T01:31:51;10.57;;;4.90;;
16579;SDS011;8402;51.466;6.806;2022-10-04T01:34:21;7.67;;;4.43;;
16579;SDS011;8402;51.466;6.806;2022-10-04T01:36:51;10.17;;;4.63;;
16579;SDS011;8402;51.466;6.806;2022-10-04T01:39:23;10.10;;;4.63;;
16579;SDS011;8402;51.466;6.806;2022-10-04T01:41:53;8.23;;;4.20;;
16579;SDS011;8402;51.466;6.806;2022-10-04T01:44:28;9.87;;;4.73;;
16579;SDS011;8402;51.466;6.806;2022-10-04T01:47:03;14.40;;;4.63;;
16579;SDS011;8402;51.466;6.806;2022-10-04T01:49:35;8.60;;;4.10;;
16579;SDS011;8402;51.466;6.806;2022-10-04T01:52:06;13.03;;;4.70;;
16579;SDS011;8402;51.466;6.806;2022-10-04T01:54:40;8.20;;;4.50;;
16579;SDS011;8402;51.466;6.806;2022-10-04T01:57:13;9.87;;;5.10;;
16579;SDS011;8402;51.466;6.806;2022-10-04T01:59:45;14.57;;;4.80;;
16579;SDS011;8402;51.466;6.806;2022-10-04T02:02:19;12.63;;;5.10;;
16579;SDS011;8402;51.466;6.806;2022-10-04T02:04:53;9.23;;;5.13;;
16579;SDS011;8402;51.466;6.806;2022-10-04T02:07:24;10.90;;;4.90;;
16579;SDS011;8402;51.466;6.806;2022-10-04T02:09:58;10.80;;;4.80;;
16579;SDS011;8402;51.466;6.806;2022-10-04T02:12:30;11.43;;;4.90;;
16579;SDS011;8402;51.466;6.806;2022-10-04T02:15:00;10.30;;;5.30;;
16579;SDS011;8402;51.466;6.806;2022-10-04T02:17:32;9.00;;;5.07;;
16579;SDS011;8402;51.466;6.806;2022-10-04T02:20:08;10.23;;;5.27;;
16579;SDS011;8402;51.466;6.806;2022-10-04T02:22:39;16.97;;;6.27;;
16579;SDS011;8402;51.466;6.806;2022-10-04T02:25:10;16.33;;;5.43;;
16579;SDS011;8402;51.466;6.806;2022-10-04T02:27:41;8.07;;;5.00;;
16579;SDS011;8402;51.466;6.806;2022-10-04T02:30:09;9.70;;;5.20;;
16579;SDS011;8402;51.466;6.806;2022-10-04T02:32:40;10.80;;;5.83;;
16579;SDS011;8402;51.466;6.806;2022-10-04T02:35:26;11.53;;;5.67;;
16579;SDS011;8402;51.466;6.806;2022-10-04T02:37:59;13.53;;;5.77;;
16579;SDS011;8402;51.466;6.806;2022-10-04T02:40:34;9.60;;;5.40;;
16579;SDS011;8402;51.466;6.806;2022-10-04T02:43:08;9.13;;;5.33;;
16579;SDS011;8402;51.466;6.806;2022-10-04T02:45:42;11.77;;;5.77;;
16579;SDS011;8402;51.466;6.806;2022-10-04T02:48:25;13.70;;;5.83;;
16579;SDS011;8402;51.466;6.806;2022-10-04T02:51:00;9.53;;;5.13;;
16579;SDS011;8402;51.466;6.806;2022-10-04T02:53:36;8.57;;;5.73;;
16579;SDS011;8402;51.466;6.806;2022-10-04T02:56:15;15.13;;;5.20;;
16579;SDS011;8402;51.466;6.806;2022-10-04T02:58:44;8.33;;;4.97;;
16579;SDS011;8402;51.466;6.806;2022-10-04T03:01:14;12.63;;;5.70;;
16579;SDS011;8402;51.466;6.806;2022-10-04T03:03:52;11.37;;;5.30;;
16579;SDS011;8402;51.466;6.806;2022-10-04T03:06:22;9.67;;;4.73;;
16579;SDS011;8402;51.466;6.806;2022-10-04T03:08:55;13.80;;;5.80;;
16579;SDS011;8402;51.466;6.806;2022-10-04T03:11:28;11.53;;;5.53;;
16579;SDS011;8402;51.466;6.806;2022-10-04T03:14:00;9.50;;;5.67;;
16579;SDS011;8402;51.466;6.806;2022-10-04T03:16:33;12.77;;;5.77;;
16579;SDS011;8402;51.466;6.806;2022-10-04T03:19:04;11.37;;;5.37;;
16579;SDS011;8402;51.466;6.806;2022-10-04T03:21:34;13.33;;;5.50;;
16579;SDS011;8402;51.466;6.806;2022-10-04T03:24:04;11.13;;;5.40;;
16579;SDS011;8402;51.466;6.806;2022-10-04T03:26:37;14.40;;;5.80;;
16579;SDS011;8402;51.466;6.806;2022-10-04T03:29:10;10.70;;;5.57;;
16579;SDS011;8402;51.466;6.806;2022-10-04T03:31:40;13.10;;;5.90;;
16579;SDS011;8402;51.466;6.806;2022-10-04T03:34:12;13.00;;;5.90;;
16579;SDS011;8402;51.466;6.806;2022-10-04T03:36:41;11.73;;;5.17;;
16579;SDS011;8402;51.466;6.806;2022-10-04T03:39:14;11.90;;;5.10;;
16579;SDS011;8402;51.466;6.806;2022-10-04T03:41:50;9.33;;;5.50;;
16579;SDS011;8402;51.466;6.806;2022-10-04T03:44:22;10.03;;;5.07;;
16579;SDS011;8402;51.466;6.806;2022-10-04T03:46:51;9.67;;;4.70;;
16579;SDS011;8402;51.466;6.806;2022-10-04T03:49:22;7.07;;;4.30;;
16579;SDS011;8402;51.466;6.806;2022-10-04T03:51:58;10.60;;;5.17;;
16579;SDS011;8402;51.466;6.806;2022-10-04T03:54:28;12.50;;;5.13;;
16579;SDS011;8402;51.466;6.806;2022-10-04T03:56:58;16.63;;;5.60;;
16579;SDS011;8402;51.466;6.806;2022-10-04T03:59:29;8.40;;;4.97;;
16579;SDS011;8402;51.466;6.806;2022-10-04T04:02:01;15.17;;;5.40;;
16579;SDS011;8402;51.466;6.806;2022-10-04T04:04:41;14.33;;;5.40;;
16579;SDS011;8402;51.466;6.806;2022-10-04T04:07:17;13.73;;;5.87;;
16579;SDS011;8402;51.466;6.806;2022-10-04T04:09:51;9.60;;;5.70;;
16579;SDS011;8402;51.466;6.806;2022-10-04T04:12:29;10.47;;;4.97;;
16579;SDS011;8402;51.466;6.806;2022-10-04T04:15:05;10.47;;;5.33;;
16579;SDS011;8402;51.466;6.806;2022-10-04T04:17:39;11.37;;;5.57;;
16579;SDS011;8402;51.466;6.806;2022-10-04T04:20:14;13.00;;;5.63;;
16579;SDS011;8402;51.466;6.806;2022-10-04T04:22:56;10.73;;;5.10;;
16579;SDS011;8402;51.466;6.806;2022-10-04T04:25:28;14.07;;;5.67;;
16579;SDS011;8402;51.466;6.806;2022-10-04T04:28:01;10.57;;;5.47;;
16579;SDS011;8402;51.466;6.806;2022-10-04T04:30:40;11.07;;;5.47;;
16579;SDS011;8402;51.466;6.806;2022-10-04T04:33:15;11.90;;;5.13;;
16579;SDS011;8402;51.466;6.806;2022-10-04T04:35:55;10.70;;;5.43;;
16579;SDS011;8402;51.466;6.806;2022-10-04T04:38:30;13.33;;;5.80;;
16579;SDS011;8402;51.466;6.806;2022-10-04T04:41:06;12.27;;;6.13;;
16579;SDS011;8402;51.466;6.806;2022-10-04T04:43:38;12.60;;;5.50;;
16579;SDS011;8402;51.466;6.806;2022-10-04T04:46:10;9.80;;;5.60;;
16579;SDS011;8402;51.466;6.806;2022-10-04T04:48:56;11.63;;;5.73;;
16579;SDS011;8402;51.466;6.806;2022-10-04T04:51:27;11.17;;;5.33;;
16579;SDS011;8402;51.466;6.806;2022-10-04T04:53:58;14.47;;;5.83;;
16579;SDS011;8402;51.466;6.806;2022-10-04T04:56:28;12.00;;;5.40;;
16579;SDS011;8402;51.466;6.806;2022-10-04T04:59:00;12.13;;;5.77;;
16579;SDS011;8402;51.466;6.806;2022-10-04T05:01:32;10.33;;;5.47;;
16579;SDS011;8402;51.466;6.806;2022-10-04T05:04:03;14.40;;;6.20;;
16579;SDS011;8402;51.466;6.806;2022-10-04T05:06:33;16.67;;;5.60;;
16579;SDS011;8402;51.466;6.806;2022-10-04T05:09:02;14.27;;;5.33;;
16579;SDS011;8402;51.466;6.806;2022-10-04T05:11:34;20.90;;;6.30;;
16579;SDS011;8402;51.466;6.806;2022-10-04T05:14:06;10.43;;;5.20;;
16579;SDS011;8402;51.466;6.806;2022-10-04T05:16:37;10.63;;;5.70;;
16579;SDS011;8402;51.466;6.806;2022-10-04T05:19:12;18.60;;;6.30;;
16579;SDS011;8402;51.466;6.806;2022-10-04T05:21:42;17.60;;;6.57;;
16579;SDS011;8402;51.466;6.806;2022-10-04T05:24:16;10.80;;;5.77;;
16579;SDS011;8402;51.466;6.806;2022-10-04T05:26:48;14.40;;;6.10;;
16579;SDS011;8402;51.466;6.806;2022-10-04T05:29:21;16.20;;;6.07;;
16579;SDS011;8402;51.466;6.806;2022-10-04T05:31:55;11.70;;;6.60;;
16579;SDS011;8402;51.466;6.806;2022-10-04T05:34:31;17.90;;;5.50;;
16579;SDS011;8402;51.466;6.806;2022-10-04T05:37:08;19.90;;;6.53;;
16579;SDS011;8402;51.466;6.806;2022-10-04T05:39:51;10.90;;;6.10;;
16579;SDS011;8402;51.466;6.806;2022-10-04T05:42:28;15.60;;;6.50;;
16579;SDS011;8402;51.466;6.806;2022-10-04T05:45:10;17.70;;;6.13;;
16579;SDS011;8402;51.466;6.806;2022-10-04T05:47:41;12.93;;;6.17;;
16579;SDS011;8402;51.466;6.806;2022-10-04T05:50:14;16.43;;;6.13;;
16579;SDS011;8402;51.466;6.806;2022-10-04T05:52:45;13.27;;;6.30;;
16579;SDS011;8402;51.466;6.806;2022-10-04T05:55:16;16.70;;;6.53;;
16579;SDS011;8402;51.466;6.806;2022-10-04T05:58:04;10.43;;;6.33;;
16579;SDS011;8402;51.466;6.806;2022-10-04T06:00:53;11.77;;;6.07;;
16579;SDS011;8402;51.466;6.806;2022-10-04T06:03:40;11.27;;;5.80;;
16579;SDS011;8402;51.466;6.806;2022-10-04T06:06:18;12.20;;;6.50;;
16579;SDS011;8402;51.466;6.806;2022-10-04T06:08:55;13.07;;;6.53;;
16579;SDS011;8402;51.466;6.806;2022-10-04T06:11:36;14.93;;;6.07;;
16579;SDS011;8402;51.466;6.806;2022-10-04T06:14:26;20.40;;;7.03;;
16579;SDS011;8402;51.466;6.806;2022-10-04T06:17:19;18.10;;;6.47;;
16579;SDS011;8402;51.466;6.806;2022-10-04T06:20:12;12.13;;;6.70;;
16579;SDS011;8402;51.466;6.806;2022-10-04T06:22:55;11.87;;;6.37;;
16579;SDS011;8402;51.466;6.806;2022-10-04T06:25:26;12.63;;;5.80;;
16579;SDS011;8402;51.466;6.806;2022-10-04T06:28:01;18.20;;;5.80;;
16579;SDS011;8402;51.466;6.806;2022-10-04T06:30:50;11.67;;;6.33;;
16579;SDS011;8402;51.466;6.806;2022-10-04T06:33:52;16.00;;;6.00;;
16579;SDS011;8402;51.466;6.806;2022-10-04T06:36:41;10.57;;;5.77;;
16579;SDS011;8402;51.466;6.806;2022-10-04T06:39:26;9.30;;;5.17;;
16579;SDS011;8402;51.466;6.806;2022-10-04T06:45:11;14.03;;;5.70;;
16579;SDS011;8402;51.466;6.806;2022-10-04T06:48:00;13.20;;;5.30;;
16579;SDS011;8402;51.466;6.806;2022-10-04T06:50:47;10.67;;;5.43;;
16579;SDS011;8402;51.466;6.806;2022-10-04T06:53:22;11.97;;;5.70;;
16579;SDS011;8402;51.466;6.806;2022-10-04T06:56:01;11.77;;;5.57;;
16579;SDS011;8402;51.466;6.806;2022-10-04T07:01:49;10.50;;;5.57;;
16579;SDS011;8402;51.466;6.806;2022-10-04T07:04:21;10.40;;;5.30;;
16579;SDS011;8402;51.466;6.806;2022-10-04T07:07:19;18.70;;;5.93;;
16579;SDS011;8402;51.466;6.806;2022-10-04T07:10:02;10.70;;;5.80;;
16579;SDS011;8402;51.466;6.806;2022-10-04T07:12:53;13.40;;;5.50;;
16579;SDS011;8402;51.466;6.806;2022-10-04T07:15:32;8.53;;;4.93;;
16579;SDS011;8402;51.466;6.806;2022-10-04T07:18:11;10.53;;;4.87;;
16579;SDS011;8402;51.466;6.806;2022-10-04T07:20:43;11.47;;;5.10;;
16579;SDS011;8402;51.466;6.806;2022-10-04T07:23:19;8.20;;;4.90;;
16579;SDS011;8402;51.466;6.806;2022-10-04T07:25:54;9.97;;;4.67;;
16579;SDS011;8402;51.466;6.806;2022-10-04T07:28:28;11.27;;;4.93;;
16579;SDS011;8402;51.466;6.806;2022-10-04T07:31:19;10.67;;;5.10;;
16579;SDS011;8402;51.466;6.806;2022-10-04T07:33:52;10.13;;;5.30;;
16579;SDS011;8402;51.466;6.806;2022-10-04T07:36:25;7.67;;;4.70;;
16579;SDS011;8402;51.466;6.806;2022-10-04T07:39:00;12.97;;;5.10;;
16579;SDS011;8402;51.466;6.806;2022-10-04T07:41:33;11.63;;;4.77;;
16579;SDS011;8402;51.466;6.806;2022-10-04T07:44:11;12.00;;;4.60;;
16579;SDS011;8402;51.466;6.806;2022-10-04T07:46:47;12.50;;;4.80;;
16579;SDS011;8402;51.466;6.806;2022-10-04T07:49:19;8.80;;;4.50;;
16579;SDS011;8402;51.466;6.806;2022-10-04T07:51:58;9.07;;;4.77;;
16579;SDS011;8402;51.466;6.806;2022-10-04T07:54:35;12.43;;;4.63;;
16579;SDS011;8402;51.466;6.806;2022-10-04T07:57:10;7.83;;;5.17;;
16579;SDS011;8402;51.466;6.806;2022-10-04T07:59:46;10.33;;;4.80;;
16579;SDS011;8402;51.466;6.806;2022-10-04T08:02:24;10.20;;;4.73;;
16579;SDS011;8402;51.466;6.806;2022-10-04T08:05:05;13.23;;;4.53;;
16579;SDS011;8402;51.466;6.806;2022-10-04T08:07:47;15.93;;;4.67;;
16579;SDS011;8402;51.466;6.806;2022-10-04T08:10:38;11.47;;;4.00;;
16579;SDS011;8402;51.466;6.806;2022-10-04T08:13:24;9.97;;;4.40;;
16579;SDS011;8402;51.466;6.806;2022-10-04T08:16:01;11.87;;;4.80;;
16579;SDS011;8402;51.466;6.806;2022-10-04T08:18:38;12.50;;;4.67;;
16579;SDS011;8402;51.466;6.806;2022-10-04T08:21:15;7.30;;;4.40;;
16579;SDS011;8402;51.466;6.806;2022-10-04T08:24:00;7.90;;;4.00;;
16579;SDS011;8402;51.466;6.806;2022-10-04T08:26:44;16.17;;;4.43;;
16579;SDS011;8402;51.466;6.806;2022-10-04T08:29:29;10.30;;;4.27;;
16579;SDS011;8402;51.466;6.806;2022-10-04T08:32:19;8.17;;;4.23;;
16579;SDS011;8402;51.466;6.806;2022-10-04T08:34:58;8.87;;;4.27;;
16579;SDS011;8402;51.466;6.806;2022-10-04T08:37:50;8.50;;;3.80;;
16579;SDS011;8402;51.466;6.806;2022-10-04T08:44:01;7.13;;;4.50;;
16579;SDS011;8402;51.466;6.806;2022-10-04T08:56:22;13.23;;;3.80;;
16579;SDS011;8402;51.466;6.806;2022-10-04T08:59:13;6.77;;;3.50;;
16579;SDS011;8402;51.466;6.806;2022-10-04T09:02:10;10.20;;;4.00;;
16579;SDS011;8402;51.466;6.806;2022-10-04T09:05:12;5.27;;;3.33;;
16579;SDS011;8402;51.466;6.806;2022-10-04T09:11:18;7.10;;;3.30;;
16579;SDS011;8402;51.466;6.806;2022-10-04T09:14:05;7.57;;;3.00;;
16579;SDS011;8402;51.466;6.806;2022-10-04T09:16:51;7.50;;;3.37;;
16579;SDS011;8402;51.466;6.806;2022-10-04T09:19:31;5.10;;;3.13;;
16579;SDS011;8402;51.466;6.806;2022-10-04T09:22:16;8.43;;;3.40;;
16579;SDS011;8402;51.466;6.806;2022-10-04T09:28:03;9.20;;;3.40;;
16579;SDS011;8402;51.466;6.806;2022-10-04T09:33:59;7.20;;;3.33;;
16579;SDS011;8402;51.466;6.806;2022-10-04T09:36:58;8.50;;;3.70;;
16579;SDS011;8402;51.466;6.806;2022-10-04T09:40:02;10.53;;;3.57;;
16579;SDS011;8402;51.466;6.806;2022-10-04T09:43:20;7.87;;;3.50;;
16579;SDS011;8402;51.466;6.806;2022-10-04T09:46:51;7.93;;;4.10;;
16579;SDS011;8402;51.466;6.806;2022-10-04T09:49:58;8.70;;;3.57;;
16579;SDS011;8402;51.466;6.806;2022-10-04T10:00:09;8.13;;;3.40;;
16579;SDS011;8402;51.466;6.806;2022-10-04T10:06:47;10.10;;;3.53;;
16579;SDS011;8402;51.466;6.806;2022-10-04T10:10:12;11.80;;;3.92;;
16579;SDS011;8402;51.466;6.806;2022-10-04T10:14:02;9.40;;;3.70;;
16579;SDS011;8402;51.466;6.806;2022-10-04T10:16:57;9.10;;;3.33;;
16579;SDS011;8402;51.466;6.806;2022-10-04T10:25:39;10.40;;;3.58;;
16579;SDS011;8402;51.466;6.806;2022-10-04T10:28:35;6.95;;;3.92;;
16579;SDS011;8402;51.466;6.806;2022-10-04T10:31:34;6.80;;;3.40;;
16579;SDS011;8402;51.466;6.806;2022-10-04T10:34:29;9.00;;;3.80;;
16579;SDS011;8402;51.466;6.806;2022-10-04T10:37:15;7.20;;;3.45;;
16579;SDS011;8402;51.466;6.806;2022-10-04T10:43:06;5.78;;;3.17;;
16579;SDS011;8402;51.466;6.806;2022-10-04T10:46:02;5.47;;;2.97;;
16579;SDS011;8402;51.466;6.806;2022-10-04T10:48:50;5.25;;;2.97;;
16579;SDS011;8402;51.466;6.806;2022-10-04T10:51:44;6.50;;;3.60;;
16579;SDS011;8402;51.466;6.806;2022-10-04T10:54:36;6.30;;;3.30;;
16579;SDS011;8402;51.466;6.806;2022-10-04T10:57:27;6.45;;;3.33;;
16579;SDS011;8402;51.466;6.806;2022-10-04T11:00:17;5.65;;;3.50;;
16579;SDS011;8402;51.466;6.806;2022-10-04T11:03:07;6.35;;;3.03;;
16579;SDS011;8402;51.466;6.806;2022-10-04T11:06:11;9.50;;;3.70;;
16579;SDS011;8402;51.466;6.806;2022-10-04T11:11:58;5.00;;;3.35;;
16579;SDS011;8402;51.466;6.806;2022-10-04T11:18:00;6.80;;;3.10;;
16579;SDS011;8402;51.466;6.806;2022-10-04T11:20:55;5.40;;;3.10;;
16579;SDS011;8402;51.466;6.806;2022-10-04T11:26:48;6.97;;;3.35;;
16579;SDS011;8402;51.466;6.806;2022-10-04T11:29:53;6.55;;;3.35;;
16579;SDS011;8402;51.466;6.806;2022-10-04T11:35:51;11.35;;;3.17;;
16579;SDS011;8402;51.466;6.806;2022-10-04T11:38:56;12.02;;;3.63;;
16579;SDS011;8402;51.466;6.806;2022-10-04T11:41:35;7.35;;;3.20;;
16579;SDS011;8402;51.466;6.806;2022-10-04T11:44:26;7.53;;;2.65;;
16579;SDS011;8402;51.466;6.806;2022-10-04T11:47:19;7.53;;;2.70;;
16579;SDS011;8402;51.466;6.806;2022-10-04T11:56:09;8.35;;;3.45;;
16579;SDS011;8402;51.466;6.806;2022-10-04T11:58:56;7.25;;;3.33;;
16579;SDS011;8402;51.466;6.806;2022-10-04T12:01:48;10.50;;;3.15;;
16579;SDS011;8402;51.466;6.806;2022-10-04T12:04:46;6.57;;;3.05;;
16579;SDS011;8402;51.466;6.806;2022-10-04T12:07:30;7.78;;;3.60;;
16579;SDS011;8402;51.466;6.806;2022-10-04T12:10:10;7.63;;;3.33;;
16579;SDS011;8402;51.466;6.806;2022-10-04T12:13:03;5.50;;;3.03;;
16579;SDS011;8402;51.466;6.806;2022-10-04T12:15:59;6.28;;;3.20;;
16579;SDS011;8402;51.466;6.806;2022-10-04T12:18:58;6.10;;;3.20;;
16579;SDS011;8402;51.466;6.806;2022-10-04T12:22:01;6.97;;;3.33;;
16579;SDS011;8402;51.466;6.806;2022-10-04T12:24:55;5.70;;;3.13;;
16579;SDS011;8402;51.466;6.806;2022-10-04T12:27:44;6.97;;;3.80;;
16579;SDS011;8402;51.466;6.806;2022-10-04T12:30:39;5.97;;;2.78;;
16579;SDS011;8402;51.466;6.806;2022-10-04T12:33:23;7.38;;;3.10;;
16579;SDS011;8402;51.466;6.806;2022-10-04T12:36:02;7.18;;;2.85;;
16579;SDS011;8402;51.466;6.806;2022-10-04T12:38:54;3.85;;;2.95;;
16579;SDS011;8402;51.466;6.806;2022-10-04T12:41:41;5.82;;;2.78;;
16579;SDS011;8402;51.466;6.806;2022-10-04T12:44:23;8.88;;;3.40;;
16579;SDS011;8402;51.466;6.806;2022-10-04T12:47:21;6.40;;;2.80;;
16579;SDS011;8402;51.466;6.806;2022-10-04T12:50:02;6.78;;;2.95;;
16579;SDS011;8402;51.466;6.806;2022-10-04T12:52:40;6.20;;;3.08;;
16579;SDS011;8402;51.466;6.806;2022-10-04T12:55:20;6.88;;;3.13;;
16579;SDS011;8402;51.466;6.806;2022-10-04T12:57:54;8.45;;;3.35;;
16579;SDS011;8402;51.466;6.806;2022-10-04T13:00:28;4.32;;;3.08;;
16579;SDS011;8402;51.466;6.806;2022-10-04T13:03:05;5.60;;;3.17;;
16579;SDS011;8402;51.466;6.806;2022-10-04T13:05:49;7.30;;;3.90;;
16579;SDS011;8402;51.466;6.806;2022-10-04T13:08:31;6.50;;;3.63;;
16579;SDS011;8402;51.466;6.806;2022-10-04T13:11:16;5.97;;;3.72;;
16579;SDS011;8402;51.466;6.806;2022-10-04T13:14:03;7.75;;;3.65;;
16579;SDS011;8402;51.466;6.806;2022-10-04T13:16:48;8.80;;;4.15;;
16579;SDS011;8402;51.466;6.806;2022-10-04T13:19:47;8.77;;;4.40;;
16579;SDS011;8402;51.466;6.806;2022-10-04T13:22:34;6.20;;;3.45;;
16579;SDS011;8402;51.466;6.806;2022-10-04T13:25:28;9.13;;;4.53;;
16579;SDS011;8402;51.466;6.806;2022-10-04T13:28:23;8.15;;;4.07;;
16579;SDS011;8402;51.466;6.806;2022-10-04T13:30:58;8.05;;;3.95;;
16579;SDS011;8402;51.466;6.806;2022-10-04T13:33:34;10.85;;;4.30;;
16579;SDS011;8402;51.466;6.806;2022-10-04T13:36:09;8.90;;;4.20;;
16579;SDS011;8402;51.466;6.806;2022-10-04T13:38:58;8.82;;;3.92;;
16579;SDS011;8402;51.466;6.806;2022-10-04T13:41:54;7.85;;;3.70;;
16579;SDS011;8402;51.466;6.806;2022-10-04T13:44:51;11.52;;;3.63;;
16579;SDS011;8402;51.466;6.806;2022-10-04T13:50:42;8.52;;;3.40;;
16579;SDS011;8402;51.466;6.806;2022-10-04T13:53:27;8.07;;;3.22;;
16579;SDS011;8402;51.466;6.806;2022-10-04T13:56:34;10.18;;;3.78;;
16579;SDS011;8402;51.466;6.806;2022-10-04T13:59:18;11.43;;;3.95;;
16579;SDS011;8402;51.466;6.806;2022-10-04T14:02:09;8.65;;;3.80;;
16579;SDS011;8402;51.466;6.806;2022-10-04T14:14:20;4.90;;;3.80;;
16579;SDS011;8402;51.466;6.806;2022-10-04T14:17:16;5.95;;;3.20;;
16579;SDS011;8402;51.466;6.806;2022-10-04T14:23:22;9.98;;;4.07;;
16579;SDS011;8402;51.466;6.806;2022-10-04T14:29:07;8.80;;;4.20;;
16579;SDS011;8402;51.466;6.806;2022-10-04T14:31:59;6.25;;;3.75;;
16579;SDS011;8402;51.466;6.806;2022-10-04T14:34:52;6.25;;;3.22;;
16579;SDS011;8402;51.466;6.806;2022-10-04T14:37:28;5.70;;;3.42;;
16579;SDS011;8402;51.466;6.806;2022-10-04T14:40:26;7.28;;;2.90;;
16579;SDS011;8402;51.466;6.806;2022-10-04T14:43:26;6.82;;;3.20;;
16579;SDS011;8402;51.466;6.806;2022-10-04T14:46:27;6.60;;;3.60;;
16579;SDS011;8402;51.466;6.806;2022-10-04T14:49:09;7.38;;;3.67;;
16579;SDS011;8402;51.466;6.806;2022-10-04T14:51:54;7.45;;;3.35;;
16579;SDS011;8402;51.466;6.806;2022-10-04T14:54:35;9.52;;;3.30;;
16579;SDS011;8402;51.466;6.806;2022-10-04T14:57:11;5.20;;;2.95;;
16579;SDS011;8402;51.466;6.806;2022-10-04T15:02:53;5.95;;;2.90;;
16579;SDS011;8402;51.466;6.806;2022-10-04T15:05:43;8.57;;;2.90;;
16579;SDS011;8402;51.466;6.806;2022-10-04T15:08:46;5.05;;;3.00;;
16579;SDS011;8402;51.466;6.806;2022-10-04T15:11:35;7.30;;;2.70;;
16579;SDS011;8402;51.466;6.806;2022-10-04T15:14:24;5.40;;;2.80;;
16579;SDS011;8402;51.466;6.806;2022-10-04T15:17:03;6.78;;;3.20;;
16579;SDS011;8402;51.466;6.806;2022-10-04T15:19:43;5.65;;;2.95;;
16579;SDS011;8402;51.466;6.806;2022-10-04T15:22:21;8.70;;;3.10;;
16579;SDS011;8402;51.466;6.806;2022-10-04T15:24:54;5.28;;;2.78;;
16579;SDS011;8402;51.466;6.806;2022-10-04T15:30:22;4.57;;;2.78;;
16579;SDS011;8402;51.466;6.806;2022-10-04T15:33:07;7.55;;;3.00;;
16579;SDS011;8402;51.466;6.806;2022-10-04T15:35:47;6.90;;;3.15;;
16579;SDS011;8402;51.466;6.806;2022-10-04T15:38:38;5.28;;;2.90;;
16579;SDS011;8402;51.466;6.806;2022-10-04T15:41:18;5.10;;;2.97;;
16579;SDS011;8402;51.466;6.806;2022-10-04T15:44:09;7.60;;;2.72;;
16579;SDS011;8402;51.466;6.806;2022-10-04T15:46:51;6.72;;;2.88;;
16579;SDS011;8402;51.466;6.806;2022-10-04T15:49:29;9.95;;;3.17;;
16579;SDS011;8402;51.466;6.806;2022-10-04T15:52:16;5.55;;;3.15;;
16579;SDS011;8402;51.466;6.806;2022-10-04T16:04:36;3.95;;;2.53;;
16579;SDS011;8402;51.466;6.806;2022-10-04T16:07:29;9.13;;;3.40;;
16579;SDS011;8402;51.466;6.806;2022-10-04T16:10:11;10.23;;;3.65;;
16579;SDS011;8402;51.466;6.806;2022-10-04T16:12:54;11.35;;;3.20;;
16579;SDS011;8402;51.466;6.806;2022-10-04T16:15:34;7.53;;;3.30;;
16579;SDS011;8402;51.466;6.806;2022-10-04T16:18:08;9.18;;;3.58;;
16579;SDS011;8402;51.466;6.806;2022-10-04T16:21:02;10.07;;;3.88;;
16579;SDS011;8402;51.466;6.806;2022-10-04T16:23:38;7.07;;;3.78;;
16579;SDS011;8402;51.466;6.806;2022-10-04T16:26:09;9.18;;;3.80;;
16579;SDS011;8402;51.466;6.806;2022-10-04T16:28:53;6.60;;;3.80;;
16579;SDS011;8402;51.466;6.806;2022-10-04T16:31:49;7.38;;;4.30;;
16579;SDS011;8402;51.466;6.806;2022-10-04T16:37:24;8.93;;;4.15;;
16579;SDS011;8402;51.466;6.806;2022-10-04T16:39:58;7.85;;;3.55;;
16579;SDS011;8402;51.466;6.806;2022-10-04T16:42:37;10.82;;;3.90;;
16579;SDS011;8402;51.466;6.806;2022-10-04T16:48:05;10.38;;;4.28;;
16579;SDS011;8402;51.466;6.806;2022-10-04T16:50:49;7.65;;;3.78;;
16579;SDS011;8402;51.466;6.806;2022-10-04T16:53:32;9.95;;;3.72;;
16579;SDS011;8402;51.466;6.806;2022-10-04T16:56:13;8.55;;;3.65;;
16579;SDS011;8402;51.466;6.806;2022-10-04T16:58:50;8.13;;;3.90;;
16579;SDS011;8402;51.466;6.806;2022-10-04T17:04:37;9.02;;;3.80;;
16579;SDS011;8402;51.466;6.806;2022-10-04T17:07:18;6.88;;;3.50;;
16579;SDS011;8402;51.466;6.806;2022-10-04T17:09:52;7.88;;;3.70;;
16579;SDS011;8402;51.466;6.806;2022-10-04T17:12:28;7.97;;;3.72;;
16579;SDS011;8402;51.466;6.806;2022-10-04T17:17:55;9.07;;;3.85;;
16579;SDS011;8402;51.466;6.806;2022-10-04T17:20:36;6.00;;;3.58;;
16579;SDS011;8402;51.466;6.806;2022-10-04T17:23:20;8.25;;;3.95;;
16579;SDS011;8402;51.466;6.806;2022-10-04T17:26:00;6.55;;;3.75;;
16579;SDS011;8402;51.466;6.806;2022-10-04T17:28:42;6.38;;;3.50;;
16579;SDS011;8402;51.466;6.806;2022-10-04T17:31:20;10.48;;;3.80;;
16579;SDS011;8402;51.466;6.806;2022-10-04T17:33:57;4.57;;;3.50;;
16579;SDS011;8402;51.466;6.806;2022-10-04T17:36:39;8.98;;;4.00;;
16579;SDS011;8402;51.466;6.806;2022-10-04T17:39:21;5.85;;;3.80;;
16579;SDS011;8402;51.466;6.806;2022-10-04T17:45:14;7.45;;;3.63;;
16579;SDS011;8402;51.466;6.806;2022-10-04T17:47:59;6.00;;;3.70;;
16579;SDS011;8402;51.466;6.806;2022-10-04T17:50:52;5.50;;;3.63;;
16579;SDS011;8402;51.466;6.806;2022-10-04T17:53:46;9.23;;;4.20;;
16579;SDS011;8402;51.466;6.806;2022-10-04T17:56:35;11.83;;;4.37;;
16579;SDS011;8402;51.466;6.806;2022-10-04T17:59:09;20.27;;;5.07;;
16579;SDS011;8402;51.466;6.806;2022-10-04T18:01:44;12.00;;;4.67;;
16579;SDS011;8402;51.466;6.806;2022-10-04T18:04:18;16.47;;;5.70;;
16579;SDS011;8402;51.466;6.806;2022-10-04T18:06:50;16.20;;;5.63;;
16579;SDS011;8402;51.466;6.806;2022-10-04T18:09:26;14.67;;;4.83;;
16579;SDS011;8402;51.466;6.806;2022-10-04T18:12:02;12.93;;;5.57;;
16579;SDS011;8402;51.466;6.806;2022-10-04T18:14:49;12.30;;;5.20;;
16579;SDS011;8402;51.466;6.806;2022-10-04T18:17:25;10.80;;;4.10;;
16579;SDS011;8402;51.466;6.806;2022-10-04T18:20:00;14.47;;;5.00;;
16579;SDS011;8402;51.466;6.806;2022-10-04T18:22:54;17.77;;;5.10;;
16579;SDS011;8402;51.466;6.806;2022-10-04T18:25:26;10.10;;;4.77;;
16579;SDS011;8402;51.466;6.806;2022-10-04T18:28:00;14.97;;;5.60;;
16579;SDS011;8402;51.466;6.806;2022-10-04T18:30:31;13.03;;;4.37;;